Terminal Aerodrome Forecast
Issued by NWS

Home | Current Version | Previous Version | Text Only | Print | Product List | Glossary On
Versions: 1 2 3 4 5 6 7 8 9 10 11 12 13 14 15 16 17
005
FTAK31 PAJN 180538
TAFAGY
TAF
PAGY 180538Z 1806/1906 20010KT P6SM BKN060 BKN080
     FM181000 05005KT P6SM VCSH OVC090
     FM181300 03008G15KT P6SM -RA OVC060
     FM182200 04006KT P6SM VCSH BKN040 OVC100
      AMD LTD TO CLD VIS AND WIND=

USA.gov is the U.S. government's official web portal to all federal, state and local government web resources and services.